K8VGL Weather Reports


time (UTC)temp
F
wind
direction
speed
knots
gust
knots
rain 1hr
in
rain 24hr
in
rain mn
in
humidity
%
barometer
mb
20260503224551 58 257 4.3 11.3 0.00 0.00 0.00 55 1012.3
20260503223049 59 199 4.3 13.9 0.00 0.00 0.00 55 1012.3
20260503221549 59 195 5.2 13.0 0.00 0.00 0.00 54 1012.3
20260503220147 60 235 5.2 16.5 0.00 0.00 0.00 53 1012.3
20260503214542 60 229 5.2 15.6 0.00 0.00 0.00 52 1012.6
20260503213043 61 219 2.6 13.9 0.00 0.00 0.00 52 1012.6
20260503211540 61 179 7.0 17.4 0.00 0.00 0.00 52 1012.9
20260503210139 59 178 5.2 10.4 0.00 0.00 0.00 54 1013.3
20260503204557 60 223 3.5 13.0 0.00 0.00 0.00 52 1013.6
20260503203101 61 185 5.2 13.9 0.00 0.00 0.00 53 1014.0
20260503201552 59 127 5.2 13.9 0.00 0.00 0.00 52 1014.6
20260503200150 60 167 3.5 13.0 0.00 0.00 0.00 52 1014.9
20260503194547 59 206 4.3 13.9 0.00 0.00 0.00 54 1015.4
20260503193043 59 169 1.7 10.4 0.00 0.00 0.00 53 1015.9
20260503191543 59 200 3.5 10.4 0.00 0.00 0.00 53 1016.1
20260503190143 60 173 5.2 12.2 0.00 0.00 0.00 51 1015.9
20260503184601 60 175 4.3 14.8 0.00 0.00 0.00 52 1016.1
20260503183044 60 199 1.7 7.8 0.00 0.00 0.00 54 1016.2
20260503181536 59 273 1.7 8.7 0.00 0.00 0.00 54 1016.7
20260503180134 58 202 3.5 11.3 0.00 0.00 0.00 52 1017.1
20260503174553 58 210 3.5 11.3 0.00 0.00 0.00 53 1017.5
20260503173049 57 174 2.6 13.0 0.00 0.00 0.00 54 1017.8
20260503171608 57 204 4.3 13.0 0.00 0.00 0.00 52 1018.1
20260503170145 57 177 4.3 8.7 0.00 0.00 0.00 52 1018.2
20260503160140 56 236 4.3 11.3 0.00 0.00 0.00 53 1019.0
20260503150148 54 182 3.5 11.3 0.00 0.00 0.00 55 1019.4
20260503140140 51 167 2.6 9.6 0.00 0.00 0.00 58 1019.9
20260503130148 47 149 2.6 8.7 0.00 0.00 0.00 64 1019.8
20260503120139 42 182 0.0 3.5 0.00 0.00 0.00 73 1019.8
20260503110153 38 198 0.9 2.6 0.00 0.00 0.00 78 1019.4
20260503100140 37 204 0.0 1.7 0.00 0.00 0.00 82 1019.0
20260503090150 36 179 0.0 0.9 0.00 0.00 0.00 84 1019.1
20260503081540 36 188 0.0 0.0 0.00 0.00 0.00 83 1019.1
20260503080138 36 188 0.0 0.9 0.00 0.00 0.00 84 1019.3
20260503071606 36 309 0.0 0.9 0.00 0.00 0.00 88 1019.2
20260503070150 35 309 0.0 0.0 0.00 0.00 0.00 89 1019.3
20260503054558 36 309 0.0 0.0 0.00 0.00 0.00 89 1019.7
20260503053047 36 309 0.0 0.9 0.00 0.00 0.00 88 1019.7
20260503051546 36 309 0.0 0.0 0.00 0.00 0.00 88 1019.8
20260503050006 36 309 0.0 0.0 0.00 0.00 0.00 87 1019.8
20260503044508 36 309 0.0 0.0 0.00 0.00 0.00 86 1019.8
20260503043002 37 309 0.0 0.0 0.00 0.00 0.00 86 1019.8
20260503041501 37 309 0.0 0.0 0.00 0.00 0.00 85 1019.8
20260503040154 38 309 0.0 0.0 0.00 0.00 0.00 83 1019.8
20260503034547 38 309 0.0 0.0 0.00 0.00 0.00 82 1019.7
20260503033042 38 309 0.0 0.0 0.00 0.00 0.00 81 1019.8
20260503031544 39 309 0.0 0.0 0.00 0.00 0.00 80 1019.8
20260503030141 39 309 0.0 0.0 0.00 0.00 0.00 79 1019.9
20260503024554 40 309 0.0 0.0 0.00 0.00 0.00 77 1019.9
20260503023104 40 309 0.0 0.0 0.00 0.00 0.00 74 1019.9
20260503021557 41 309 0.0 0.0 0.00 0.00 0.00 74 1019.7
20260503020152 42 309 0.0 0.0 0.00 0.00 0.00 70 1019.6
20260503014549 43 309 0.0 0.0 0.00 0.00 0.00 71 1019.4
20260503013046 44 309 0.0 0.0 0.00 0.00 0.00 69 1019.3
20260503011555 45 309 0.0 0.0 0.00 0.00 0.00 61 1019.2
20260503010141 46 309 0.0 0.0 0.00 0.00 0.00 58 1019.2
20260503004553 47 309 0.0 0.0 0.00 0.00 0.00 55 1019.2
20260503003053 48 309 0.0 2.6 0.00 0.00 0.00 53 1019.2
20260503001552 48 299 0.0 2.6 0.00 0.00 0.00 52 1019.1
20260503000151 49 340 0.0 2.6 0.00 0.00 0.00 50 1019.0
20260502234557 49 323 0.9 5.2 0.00 0.00 0.00 48 1018.9
20260502233043 50 315 0.9 6.1 0.00 0.00 0.00 45 1018.8
20260502231543 50 311 1.7 4.3 0.00 0.00 0.00 46 1018.9
20260502230141 51 354 0.9 7.0 0.00 0.00 0.00 47 1019.0